Nearby METAR Reports

 

KSFB - Sanford/Orlando, Florida, USA
Distance from station: E 8mi, 12km
Actualizado: Sat 01/19/19 7:53pm EST
Céu Limpo
Céu Limpo
 Vento de S
Vento: S 8 mph , 13 km/h
Temperatura: 72°F , 22°C
Ponto de Orvalho: 55°F , 13°C
Humidade: 57%
Barómetro: 29.87 inHg , 1011.5 hPa
Clouds: Céu Limpo
Visibility: 10 miles , 16 km
2019/01/20 00:53 KSFB 200053Z 18007KT 10SM CLR 22/13 A2987 RMK AO2 SLP116 T02170128
KORL - Orlando, Florida, USA
Distance from station: S 15mi, 24km
Actualizado: Sat 01/19/19 7:53pm EST
Céu Limpo
Céu Limpo
 Vento de S
Vento: S 7 mph , 11 km/h
Temperatura: 70°F , 21°C
Ponto de Orvalho: 55°F , 13°C
Humidade: 60%
Barómetro: 29.89 inHg , 1012.2 hPa
Clouds: Céu Limpo
Visibility: 10 miles , 16 km
2019/01/20 00:53 KORL 200053Z 19006KT 10SM CLR 21/13 A2989 RMK AO2 SLP125 T02110133
 
KDED - Deland, Florida, USA
Distance from station: N 21mi, 34km
Actualizado: Sat 01/19/19 7:55pm EST
Parcialmente nublado
Parcialmente nublado
 Vento de S
Vento: S 9 mph , 15 km/h
Temperatura: 70°F , 21°C
Ponto de Orvalho: 54°F , 12°C
Humidade: 57%
Barómetro: 29.87 inHg , 1011.5 hPa
Clouds: Parcialmente nublado
Visibility: 10 miles , 16 km
Cloud details: Parcialmente nublado 8000 ft
2019/01/20 00:55 KDED 200055Z AUTO 18008KT 10SM SCT080 21/12 A2987 RMK AO2
KMCO - Orlando, Florida, USA
Distance from station: S 24mi, 39km
Actualizado: Sat 01/19/19 7:53pm EST
Parcialmente nublado
Parcialmente nublado
 Vento de S
Vento: S 8 mph , 13 km/h
Temperatura: 68°F , 20°C
Ponto de Orvalho: 55°F , 13°C
Humidade: 64%
Barómetro: 29.89 inHg , 1012.2 hPa
Clouds: Parcialmente nublado
Visibility: 10 miles , 16 km
Cloud details: Parcialmente nublado 6000 ft
Parcialmente nublado 30000 ft
2019/01/20 00:53 KMCO 200053Z 18007KT 10SM SCT060 SCT300 20/13 A2989 RMK AO2 SLP122 T02000133
 
KLEE - Leesburg, Florida, USA
Distance from station: W 29mi, 47km
Actualizado: Sat 01/19/19 7:53pm EST
Few Clouds
Few Clouds
 Vento de SSW
Vento: SSW 9 mph , 15 km/h
Temperatura: 70°F , 21°C
Ponto de Orvalho: 55°F , 13°C
Humidade: 60%
Barómetro: 29.88 inHg , 1011.9 hPa
Clouds: Few Clouds
Visibility: 10 miles , 16 km
Cloud details: Few Clouds 8000 ft
2019/01/20 00:53 KLEE 200053Z AUTO 20008KT 10SM FEW080 21/13 A2988 RMK AO2 SLP118 T02060133
KEVB - New Smyrna Beach, Florida, USA
Distance from station: NE 31mi, 49km
Actualizado: Sat 01/19/19 7:47pm EST
Céu Limpo
Céu Limpo
 Vento de S
Vento: S 9 mph , 15 km/h
Temperatura: 68°F , 20°C
Ponto de Orvalho: 61°F , 16°C
Humidade: 78%
Barómetro: 29.88 inHg , 1011.9 hPa
Clouds: Céu Limpo
Visibility: 10 miles , 16 km
2019/01/20 00:47 KEVB 200047Z 18008KT 10SM CLR 20/16 A2988
 
KDAB - Daytona Beach, Florida, USA
Distance from station: NNE 33mi, 53km
Actualizado: Sat 01/19/19 7:53pm EST
Parcialmente nublado
Parcialmente nublado
 Vento de SSE
Vento: SSE 7 mph , 11 km/h
Temperatura: 68°F , 20°C
Ponto de Orvalho: 61°F , 16°C
Humidade: 78%
Barómetro: 29.87 inHg , 1011.5 hPa
Clouds: Parcialmente nublado
Visibility: 10 miles , 16 km
Cloud details: Few Clouds 6000 ft
Parcialmente nublado 15000 ft
2019/01/20 00:53 KDAB 200053Z 16006KT 10SM FEW060 SCT150 20/16 A2987 RMK AO2 SLP113 T02000161
KISM - Kissimmee/Orland, Florida, USA
Distance from station: S 34mi, 55km
Actualizado: Sat 01/19/19 7:56pm EST
Few Clouds
Few Clouds
 Vento de SSW
Vento: SSW 6 mph , 9 km/h
Temperatura: 70°F , 21°C
Ponto de Orvalho: 57°F , 14°C
Humidade: 64%
Barómetro: 29.91 inHg , 1012.9 hPa
Clouds: Few Clouds
Visibility: 10 miles , 16 km
Cloud details: Few Clouds 6500 ft
2019/01/20 00:56 KISM 200056Z 21005KT 10SM FEW065 21/14 A2991 RMK AO2 SLP130 T02060139 PNO $
 
KTIX - Titusville, Florida, USA
Distance from station: ESE 38mi, 61km
Actualizado: Sat 01/19/19 7:47pm EST
Parcialmente nublado
Parcialmente nublado
 Vento de S
Vento: S 8 mph , 13 km/h
Temperatura: 70°F , 21°C
Ponto de Orvalho: 57°F , 14°C
Humidade: 64%
Barómetro: 29.90 inHg , 1012.5 hPa
Clouds: Parcialmente nublado
Visibility: 7 miles , 11 km
Cloud details: Parcialmente nublado 6500 ft
2019/01/20 00:47 KTIX 200047Z 17007KT 7SM SCT065 21/14 A2990
KOMN - Ormond Beach Vor, Florida, USA
Distance from station: NNE 39mi, 63km
Actualizado: Sat 01/19/19 6:50pm EST
NOT Current
Céu Limpo
Céu Limpo
 Vento de SE
Vento: SE 5 mph , 7 km/h
Temperatura: 70°F , 21°C
Ponto de Orvalho: 59°F , 15°C
Humidade: 69%
Barómetro: 29.87 inHg , 1011.5 hPa
Clouds: Céu Limpo
Visibility: 10 miles , 16 km
2019/01/19 23:50 KOMN 192350Z 13004KT 10SM CLR 21/15 A2987 RMK LAST
 
KTTS - Nasa Shuttle Fcl, Florida, USA
Distance from station: ESE 39mi, 63km
Actualizado: Sat 01/19/19 7:56pm EST
Few Clouds
Few Clouds
 Vento de S
Vento: S 8 mph , 13 km/h
Temperatura: 68°F , 20°C
Ponto de Orvalho: 63°F , 17°C
Humidade: 83%
Barómetro: 29.88 inHg , 1011.9 hPa
Clouds: Few Clouds
Visibility: 10 miles , 16 km
Cloud details: Few Clouds 22000 ft
2019/01/20 00:56 KTTS 200056Z AUTO 17007KT 10SM FEW220 20/17 A2988 RMK AO2 SLP123 T01970169 $
KVVG - The Villages, Florida, USA
Distance from station: WNW 40mi, 64km
Actualizado: Wed 02/14/18 2:10pm EST
NOT Current

 Vento de calm
Vento: Calmo
Temperatura: 73°F , 23°C
Ponto de Orvalho: 66°F , 19°C
Humidade: 78%
Barómetro: 30.29 inHg , 1025.7 hPa
Visibility: 10 miles , 16 km
2018/02/14 19:10 KVVG 141910Z AUTO 00000KT 10SM 23/19 A3029 RMK A01
 
KXMR - Cape Canaveral, Florida, USA
Distance from station: ESE 51mi, 83km
Actualizado: Sat 01/19/19 7:56pm EST
Céu Limpo
Céu Limpo
 Vento de S
Vento: S 16 mph , 26 km/h
Temperatura: 70°F , 21°C
Ponto de Orvalho: 64°F , 18°C
Humidade: 83%
Barómetro: 29.88 inHg , 1011.9 hPa
Clouds: Céu Limpo
Visibility: 10 miles , 16 km
2019/01/20 00:56 KXMR 200056Z AUTO 17014KT 10SM CLR 21/18 A2988 RMK AO2 SLP121 T02080180 $
KGIF - Winter Haven, Florida, USA
Distance from station: SSW 55mi, 88km
Actualizado: Sat 01/19/19 7:53pm EST
Muito nublado
Muito nublado
 Vento de SSW
Vento: SSW 10 mph , 17 km/h
Temperatura: 72°F , 22°C
Ponto de Orvalho: 57°F , 14°C
Humidade: 61%
Barómetro: 29.91 inHg , 1012.9 hPa
Clouds: Muito nublado
Visibility: 10 miles , 16 km
Cloud details: Few Clouds 6000 ft
Muito nublado 9000 ft
2019/01/20 00:53 KGIF 200053Z AUTO 20009KT 10SM FEW060 BKN090 22/14 A2991 RMK AO2 SLP126 T02220139
 
KCOF - Patrick Afb/Coco, Florida, USA
Distance from station: SE 58mi, 94km
Actualizado: Sat 01/19/19 7:56pm EST
Céu Limpo
Céu Limpo
 Vento de S
Vento: S 10 mph , 17 km/h
Temperatura: 70°F , 21°C
Ponto de Orvalho: 63°F , 17°C
Humidade: 78%
Barómetro: 29.90 inHg , 1012.5 hPa
Clouds: Céu Limpo
Visibility: 10 miles , 16 km
2019/01/20 00:56 KCOF 200056Z AUTO 17009KT 10SM CLR 21/17 A2990 RMK AO2 SLP130 T02100174
KINF - Inverness, Florida, USA
Distance from station: W 59mi, 95km
Actualizado: Sat 01/19/19 7:55pm EST
Encoberto
Encoberto
 Vento de S
Vento: S 8 mph , 13 km/h
Temperatura: 70°F , 21°C
Ponto de Orvalho: 63°F , 17°C
Humidade: 78%
Barómetro: 29.87 inHg , 1011.5 hPa
Clouds: Encoberto
Visibility: 10 miles , 16 km
Cloud details: Encoberto 8000 ft
2019/01/20 00:55 KINF 200055Z AUTO 18007KT 10SM OVC080 21/17 A2987 RMK AO2 LTG DSNT W
 
KOCF - Ocala Muni, Florida, USA
Distance from station: WNW 60mi, 96km
Actualizado: Sat 01/19/19 7:51pm EST
Muito nublado
Muito nublado
 Vento de S
Vento: S 14 mph , 22 km/h
Temperatura: 72°F , 22°C
Ponto de Orvalho: 57°F , 14°C
Humidade: 61%
Barómetro: 29.86 inHg , 1011.2 hPa
Clouds: Muito nublado
Visibility: 10 miles , 16 km
Cloud details: Few Clouds 8000 ft
Muito nublado 10000 ft
2019/01/20 00:51 KOCF 200051Z AUTO 19012KT 10SM FEW080 BKN100 22/14 A2986 RMK AO2 SLP112 T02220144 $
KZPH - Zephyrhills, Florida, USA
Distance from station: SW 61mi, 99km
Actualizado: Sat 01/19/19 8:35pm EST
Céu Limpo
Céu Limpo
 Vento de S
Vento: S 10 mph , 17 km/h
Temperatura: 70°F , 21°C
Ponto de Orvalho: 59°F , 15°C
Humidade: 69%
Barómetro: 29.89 inHg , 1012.2 hPa
Clouds: Céu Limpo
Visibility: 10 miles , 16 km
2019/01/20 01:35 KZPH 200135Z AUTO 18009KT 10SM CLR 21/15 A2989 RMK AO2 LTG DSNT NW T020
 
KMLB - Melbourne, Florida, USA
Distance from station: SE 62mi, 100km
Actualizado: Sat 01/19/19 7:53pm EST
Céu Limpo
Céu Limpo
 Vento de S
Vento: S 9 mph , 15 km/h
Temperatura: 72°F , 22°C
Ponto de Orvalho: 55°F , 13°C
Humidade: 57%
Barómetro: 29.91 inHg , 1012.9 hPa
Clouds: Céu Limpo
Visibility: 10 miles , 16 km
2019/01/20 00:53 KMLB 200053Z 17008KT 10SM CLR 22/13 A2991 RMK AO2 SLP127 T02170133
KBOW - Bartow Municipal, Florida, USA
Distance from station: SSW 63mi, 102km
Actualizado: Sat 01/19/19 7:55pm EST
Parcialmente nublado
Parcialmente nublado
 Vento de S
Vento: S 10 mph , 17 km/h
Temperatura: 68°F , 20°C
Ponto de Orvalho: 57°F , 14°C
Humidade: 69%
Barómetro: 29.89 inHg , 1012.2 hPa
Clouds: Parcialmente nublado
Visibility: 10 miles , 16 km
Cloud details: Few Clouds 6000 ft
Parcialmente nublado 9000 ft
2019/01/20 00:55 KBOW 200055Z AUTO 19009KT 10SM FEW060 SCT090 20/14 A2989 RMK AO2